sensor_id;sensor_type;location;lat;lon;timestamp;pressure;altitude;pressure_sealevel;temperature;humidity
33153;BME280;19509;43.862;26.176;2022-09-17T00:01:55;99714.59;;;18.43;69.07
33153;BME280;19509;43.862;26.176;2022-09-17T00:04:21;99706.97;;;18.40;68.82
33153;BME280;19509;43.862;26.176;2022-09-17T00:06:46;99705.59;;;18.48;68.58
33153;BME280;19509;43.862;26.176;2022-09-17T00:09:11;99699.88;;;18.44;69.07
33153;BME280;19509;43.862;26.176;2022-09-17T00:11:40;99697.19;;;18.39;68.87
33153;BME280;19509;43.862;26.176;2022-09-17T00:14:07;99706.16;;;18.45;68.86
33153;BME280;19509;43.862;26.176;2022-09-17T00:16:38;99695.53;;;18.43;68.93
33153;BME280;19509;43.862;26.176;2022-09-17T00:19:05;99712.34;;;18.51;68.48
33153;BME280;19509;43.862;26.176;2022-09-17T00:21:32;99710.25;;;18.42;68.76
33153;BME280;19509;43.862;26.176;2022-09-17T00:24:00;99715.69;;;18.42;68.90
33153;BME280;19509;43.862;26.176;2022-09-17T00:26:27;99714.38;;;18.35;69.00
33153;BME280;19509;43.862;26.176;2022-09-17T00:28:54;99729.69;;;18.31;69.01
33153;BME280;19509;43.862;26.176;2022-09-17T00:31:21;99726.38;;;18.34;69.14
33153;BME280;19509;43.862;26.176;2022-09-17T00:33:47;99723.31;;;18.40;68.73
33153;BME280;19509;43.862;26.176;2022-09-17T00:36:13;99721.38;;;18.46;68.28
33153;BME280;19509;43.862;26.176;2022-09-17T00:38:39;99711.09;;;18.38;68.46
33153;BME280;19509;43.862;26.176;2022-09-17T00:41:06;99716.00;;;18.36;69.06
33153;BME280;19509;43.862;26.176;2022-09-17T00:43:43;99717.03;;;18.45;68.75
33153;BME280;19509;43.862;26.176;2022-09-17T00:46:20;99705.34;;;18.39;68.77
33153;BME280;19509;43.862;26.176;2022-09-17T00:48:48;99693.84;;;18.48;68.19
33153;BME280;19509;43.862;26.176;2022-09-17T00:51:19;99696.84;;;18.51;68.12
33153;BME280;19509;43.862;26.176;2022-09-17T00:53:45;99705.28;;;18.50;68.16
33153;BME280;19509;43.862;26.176;2022-09-17T00:56:31;99700.69;;;18.45;68.54
33153;BME280;19509;43.862;26.176;2022-09-17T00:59:00;99691.47;;;18.41;68.58
33153;BME280;19509;43.862;26.176;2022-09-17T01:01:25;99694.50;;;18.34;68.62
33153;BME280;19509;43.862;26.176;2022-09-17T01:03:51;99701.34;;;18.27;68.81
33153;BME280;19509;43.862;26.176;2022-09-17T01:17:08;99695.88;;;18.32;68.48
33153;BME280;19509;43.862;26.176;2022-09-17T01:22:43;99685.75;;;18.37;68.68
33153;BME280;19509;43.862;26.176;2022-09-17T01:25:21;99683.88;;;18.38;68.23
33153;BME280;19509;43.862;26.176;2022-09-17T01:31:07;99685.06;;;18.22;68.86
33153;BME280;19509;43.862;26.176;2022-09-17T01:33:59;99688.91;;;18.15;69.17
33153;BME280;19509;43.862;26.176;2022-09-17T01:39:17;99689.03;;;17.95;69.61
33153;BME280;19509;43.862;26.176;2022-09-17T01:47:29;99676.59;;;17.84;69.98
33153;BME280;19509;43.862;26.176;2022-09-17T01:50:02;99674.63;;;17.94;69.74
33153;BME280;19509;43.862;26.176;2022-09-17T01:52:31;99672.47;;;17.91;69.81
33153;BME280;19509;43.862;26.176;2022-09-17T01:55:03;99675.13;;;18.02;69.60
33153;BME280;19509;43.862;26.176;2022-09-17T01:57:40;99670.78;;;18.01;69.72
33153;BME280;19509;43.862;26.176;2022-09-17T02:00:11;99660.72;;;17.96;69.71
33153;BME280;19509;43.862;26.176;2022-09-17T02:02:42;99672.41;;;17.96;69.83
33153;BME280;19509;43.862;26.176;2022-09-17T02:05:11;99672.72;;;17.95;69.79
33153;BME280;19509;43.862;26.176;2022-09-17T02:07:46;99670.53;;;17.92;70.08
33153;BME280;19509;43.862;26.176;2022-09-17T02:10:17;99669.19;;;17.89;70.17
33153;BME280;19509;43.862;26.176;2022-09-17T02:13:00;99668.13;;;17.90;69.98
33153;BME280;19509;43.862;26.176;2022-09-17T02:15:32;99647.97;;;17.86;70.13
33153;BME280;19509;43.862;26.176;2022-09-17T02:20:47;99642.00;;;17.84;70.16
33153;BME280;19509;43.862;26.176;2022-09-17T02:23:24;99634.97;;;17.78;70.17
33153;BME280;19509;43.862;26.176;2022-09-17T02:25:57;99641.47;;;17.82;70.38
33153;BME280;19509;43.862;26.176;2022-09-17T02:28:40;99646.34;;;17.85;70.29
33153;BME280;19509;43.862;26.176;2022-09-17T02:31:07;99649.31;;;17.89;70.17
33153;BME280;19509;43.862;26.176;2022-09-17T02:33:34;99641.72;;;17.86;70.35
33153;BME280;19509;43.862;26.176;2022-09-17T02:36:02;99645.78;;;17.88;69.88
33153;BME280;19509;43.862;26.176;2022-09-17T02:38:29;99644.44;;;17.91;70.04
33153;BME280;19509;43.862;26.176;2022-09-17T02:41:13;99633.03;;;17.84;70.34
33153;BME280;19509;43.862;26.176;2022-09-17T02:43:51;99622.41;;;17.82;70.39
33153;BME280;19509;43.862;26.176;2022-09-17T02:52:00;99612.91;;;17.80;70.72
33153;BME280;19509;43.862;26.176;2022-09-17T02:54:42;99614.53;;;17.76;70.54
33153;BME280;19509;43.862;26.176;2022-09-17T02:57:19;99625.47;;;17.70;70.96
33153;BME280;19509;43.862;26.176;2022-09-17T03:00:06;99630.38;;;17.68;71.11
33153;BME280;19509;43.862;26.176;2022-09-17T03:02:43;99639.13;;;17.60;71.32
33153;BME280;19509;43.862;26.176;2022-09-17T03:05:12;99632.88;;;17.55;71.24
33153;BME280;19509;43.862;26.176;2022-09-17T03:07:38;99624.47;;;17.56;71.26
33153;BME280;19509;43.862;26.176;2022-09-17T03:10:04;99623.91;;;17.54;71.47
33153;BME280;19509;43.862;26.176;2022-09-17T03:12:30;99611.97;;;17.50;71.38
33153;BME280;19509;43.862;26.176;2022-09-17T03:14:56;99598.56;;;17.64;71.44
33153;BME280;19509;43.862;26.176;2022-09-17T03:17:21;99595.91;;;17.54;72.13
33153;BME280;19509;43.862;26.176;2022-09-17T03:19:47;99586.53;;;17.20;73.08
33153;BME280;19509;43.862;26.176;2022-09-17T03:22:12;99580.19;;;16.75;74.87
33153;BME280;19509;43.862;26.176;2022-09-17T03:24:38;99590.69;;;16.97;74.41
33153;BME280;19509;43.862;26.176;2022-09-17T03:27:04;99585.22;;;17.13;73.50
33153;BME280;19509;43.862;26.176;2022-09-17T03:29:29;99575.66;;;17.25;73.21
33153;BME280;19509;43.862;26.176;2022-09-17T03:31:55;99580.72;;;17.42;72.93
33153;BME280;19509;43.862;26.176;2022-09-17T03:34:20;99575.84;;;17.39;72.95
33153;BME280;19509;43.862;26.176;2022-09-17T03:36:46;99574.41;;;17.52;72.83
33153;BME280;19509;43.862;26.176;2022-09-17T03:39:11;99570.41;;;17.39;73.09
33153;BME280;19509;43.862;26.176;2022-09-17T03:41:37;99570.72;;;17.33;73.73
33153;BME280;19509;43.862;26.176;2022-09-17T03:44:03;99557.94;;;17.28;73.50
33153;BME280;19509;43.862;26.176;2022-09-17T03:46:29;99538.16;;;17.22;73.41
33153;BME280;19509;43.862;26.176;2022-09-17T03:48:55;99544.34;;;17.28;72.83
33153;BME280;19509;43.862;26.176;2022-09-17T03:51:20;99535.94;;;17.30;72.72
33153;BME280;19509;43.862;26.176;2022-09-17T03:53:46;99541.88;;;17.32;73.23
33153;BME280;19509;43.862;26.176;2022-09-17T03:56:11;99532.97;;;17.26;73.58
33153;BME280;19509;43.862;26.176;2022-09-17T03:58:37;99527.31;;;17.12;73.88
33153;BME280;19509;43.862;26.176;2022-09-17T04:01:03;99540.13;;;17.01;74.57
33153;BME280;19509;43.862;26.176;2022-09-17T04:03:29;99534.13;;;17.05;74.49
33153;BME280;19509;43.862;26.176;2022-09-17T04:05:55;99536.81;;;17.15;74.06
33153;BME280;19509;43.862;26.176;2022-09-17T04:08:21;99537.53;;;17.31;73.56
33153;BME280;19509;43.862;26.176;2022-09-17T04:10:47;99542.38;;;17.44;72.97
33153;BME280;19509;43.862;26.176;2022-09-17T04:13:14;99527.72;;;17.40;73.41
33153;BME280;19509;43.862;26.176;2022-09-17T04:15:40;99522.22;;;17.50;72.62
33153;BME280;19509;43.862;26.176;2022-09-17T04:18:06;99521.91;;;17.52;72.60
33153;BME280;19509;43.862;26.176;2022-09-17T04:20:32;99518.09;;;17.53;72.25
33153;BME280;19509;43.862;26.176;2022-09-17T04:22:57;99502.31;;;17.55;72.06
33153;BME280;19509;43.862;26.176;2022-09-17T04:25:23;99515.66;;;17.56;72.17
33153;BME280;19509;43.862;26.176;2022-09-17T04:27:49;99519.94;;;17.62;72.12
33153;BME280;19509;43.862;26.176;2022-09-17T04:30:14;99523.75;;;17.66;72.34
33153;BME280;19509;43.862;26.176;2022-09-17T04:32:42;99523.09;;;17.80;71.63
33153;BME280;19509;43.862;26.176;2022-09-17T04:35:08;99526.09;;;17.83;71.71
33153;BME280;19509;43.862;26.176;2022-09-17T04:37:33;99532.75;;;18.01;71.27
33153;BME280;19509;43.862;26.176;2022-09-17T04:39:59;99523.81;;;17.95;71.59
33153;BME280;19509;43.862;26.176;2022-09-17T04:42:24;99527.78;;;18.08;72.01
33153;BME280;19509;43.862;26.176;2022-09-17T04:44:50;99528.84;;;18.12;73.01
33153;BME280;19509;43.862;26.176;2022-09-17T04:47:16;99520.03;;;17.91;73.65
33153;BME280;19509;43.862;26.176;2022-09-17T04:49:41;99520.59;;;17.88;73.43
33153;BME280;19509;43.862;26.176;2022-09-17T04:52:06;99516.28;;;17.82;73.46
33153;BME280;19509;43.862;26.176;2022-09-17T04:54:32;99523.38;;;17.83;73.98
33153;BME280;19509;43.862;26.176;2022-09-17T04:56:59;99520.28;;;17.95;73.32
33153;BME280;19509;43.862;26.176;2022-09-17T04:59:24;99508.16;;;18.11;73.25
33153;BME280;19509;43.862;26.176;2022-09-17T05:01:50;99511.06;;;18.20;73.11
33153;BME280;19509;43.862;26.176;2022-09-17T05:04:15;99519.97;;;18.31;72.02
33153;BME280;19509;43.862;26.176;2022-09-17T05:06:41;99518.53;;;18.38;71.43
33153;BME280;19509;43.862;26.176;2022-09-17T05:09:06;99516.31;;;18.40;71.78
33153;BME280;19509;43.862;26.176;2022-09-17T05:11:32;99522.59;;;18.41;71.86
33153;BME280;19509;43.862;26.176;2022-09-17T05:13:58;99523.66;;;18.40;72.37
33153;BME280;19509;43.862;26.176;2022-09-17T05:16:23;99512.97;;;18.49;71.29
33153;BME280;19509;43.862;26.176;2022-09-17T05:18:49;99509.94;;;18.50;71.36
33153;BME280;19509;43.862;26.176;2022-09-17T05:21:18;99520.59;;;18.71;71.71
33153;BME280;19509;43.862;26.176;2022-09-17T05:23:45;99527.16;;;18.70;71.93
33153;BME280;19509;43.862;26.176;2022-09-17T05:26:11;99523.47;;;18.84;72.03
33153;BME280;19509;43.862;26.176;2022-09-17T05:28:36;99519.72;;;18.80;70.29
33153;BME280;19509;43.862;26.176;2022-09-17T05:31:02;99526.88;;;18.95;70.32
33153;BME280;19509;43.862;26.176;2022-09-17T05:33:28;99534.13;;;19.05;70.56
33153;BME280;19509;43.862;26.176;2022-09-17T05:35:54;99528.50;;;19.20;70.54
33153;BME280;19509;43.862;26.176;2022-09-17T05:38:20;99519.41;;;19.25;70.44
33153;BME280;19509;43.862;26.176;2022-09-17T05:40:45;99521.78;;;19.31;70.96
33153;BME280;19509;43.862;26.176;2022-09-17T05:43:11;99526.66;;;19.34;71.37
33153;BME280;19509;43.862;26.176;2022-09-17T05:45:37;99521.13;;;19.58;71.02
33153;BME280;19509;43.862;26.176;2022-09-17T05:48:04;99516.56;;;19.73;70.66
33153;BME280;19509;43.862;26.176;2022-09-17T05:50:30;99517.31;;;19.78;69.53
33153;BME280;19509;43.862;26.176;2022-09-17T05:53:00;99509.47;;;19.91;68.67
33153;BME280;19509;43.862;26.176;2022-09-17T05:55:27;99518.25;;;19.88;69.50
33153;BME280;19509;43.862;26.176;2022-09-17T05:57:52;99518.31;;;20.01;68.98
33153;BME280;19509;43.862;26.176;2022-09-17T06:00:18;99514.28;;;20.13;69.12
33153;BME280;19509;43.862;26.176;2022-09-17T06:02:44;99506.81;;;20.18;68.75
33153;BME280;19509;43.862;26.176;2022-09-17T06:05:09;99521.16;;;20.24;68.68
33153;BME280;19509;43.862;26.176;2022-09-17T06:07:36;99514.84;;;20.42;67.73
33153;BME280;19509;43.862;26.176;2022-09-17T06:10:03;99513.56;;;20.53;67.22
33153;BME280;19509;43.862;26.176;2022-09-17T06:12:29;99503.03;;;20.74;66.62
33153;BME280;19509;43.862;26.176;2022-09-17T06:14:54;99497.47;;;20.79;66.27
33153;BME280;19509;43.862;26.176;2022-09-17T06:17:19;99500.00;;;20.62;67.22
33153;BME280;19509;43.862;26.176;2022-09-17T06:19:45;99508.22;;;20.62;67.51
33153;BME280;19509;43.862;26.176;2022-09-17T06:22:11;99510.22;;;20.57;67.37
33153;BME280;19509;43.862;26.176;2022-09-17T06:24:36;99512.84;;;20.62;68.48
33153;BME280;19509;43.862;26.176;2022-09-17T06:27:01;99510.53;;;20.83;67.42
33153;BME280;19509;43.862;26.176;2022-09-17T06:29:27;99511.34;;;20.97;67.59
33153;BME280;19509;43.862;26.176;2022-09-17T06:31:52;99502.63;;;20.95;68.39
33153;BME280;19509;43.862;26.176;2022-09-17T06:34:18;99507.47;;;20.98;67.48
33153;BME280;19509;43.862;26.176;2022-09-17T06:36:44;99496.13;;;21.05;66.84
33153;BME280;19509;43.862;26.176;2022-09-17T06:39:10;99482.06;;;20.84;67.37
33153;BME280;19509;43.862;26.176;2022-09-17T06:41:36;99481.97;;;21.02;68.63
33153;BME280;19509;43.862;26.176;2022-09-17T06:44:03;99480.03;;;21.03;67.40
33153;BME280;19509;43.862;26.176;2022-09-17T06:46:28;99483.53;;;21.17;66.00
33153;BME280;19509;43.862;26.176;2022-09-17T06:48:54;99482.75;;;21.17;67.54
33153;BME280;19509;43.862;26.176;2022-09-17T06:51:20;99474.22;;;21.18;65.54
33153;BME280;19509;43.862;26.176;2022-09-17T06:53:46;99480.69;;;21.22;67.38
33153;BME280;19509;43.862;26.176;2022-09-17T06:56:13;99487.09;;;21.18;66.40
33153;BME280;19509;43.862;26.176;2022-09-17T06:58:39;99502.16;;;21.29;65.02
33153;BME280;19509;43.862;26.176;2022-09-17T07:01:11;99497.00;;;21.41;65.78
33153;BME280;19509;43.862;26.176;2022-09-17T07:03:37;99506.22;;;21.32;65.56
33153;BME280;19509;43.862;26.176;2022-09-17T07:06:03;99514.06;;;21.11;66.61
33153;BME280;19509;43.862;26.176;2022-09-17T07:08:31;99517.75;;;21.29;64.96
33153;BME280;19509;43.862;26.176;2022-09-17T07:10:59;99504.06;;;21.42;65.02
33153;BME280;19509;43.862;26.176;2022-09-17T07:13:25;99508.69;;;21.56;64.41
33153;BME280;19509;43.862;26.176;2022-09-17T07:15:54;99506.38;;;21.49;65.25
33153;BME280;19509;43.862;26.176;2022-09-17T07:18:20;99504.97;;;21.52;65.78
33153;BME280;19509;43.862;26.176;2022-09-17T07:20:55;99504.47;;;21.49;66.21
33153;BME280;19509;43.862;26.176;2022-09-17T07:23:22;99496.50;;;21.62;65.63
33153;BME280;19509;43.862;26.176;2022-09-17T07:25:53;99501.56;;;21.68;65.95
33153;BME280;19509;43.862;26.176;2022-09-17T07:28:19;99494.09;;;21.60;64.88
33153;BME280;19509;43.862;26.176;2022-09-17T07:30:45;99495.19;;;21.59;65.24
33153;BME280;19509;43.862;26.176;2022-09-17T07:33:10;99505.28;;;21.95;64.20
33153;BME280;19509;43.862;26.176;2022-09-17T07:35:36;99508.03;;;22.17;64.22
33153;BME280;19509;43.862;26.176;2022-09-17T07:38:01;99509.50;;;22.15;63.20
33153;BME280;19509;43.862;26.176;2022-09-17T07:40:26;99508.25;;;22.30;62.44
33153;BME280;19509;43.862;26.176;2022-09-17T07:42:55;99514.78;;;21.97;63.02
33153;BME280;19509;43.862;26.176;2022-09-17T07:45:21;99519.03;;;22.04;63.20
33153;BME280;19509;43.862;26.176;2022-09-17T07:47:47;99520.47;;;22.24;63.84
33153;BME280;19509;43.862;26.176;2022-09-17T07:50:12;99497.63;;;22.28;62.68
33153;BME280;19509;43.862;26.176;2022-09-17T07:52:44;99494.75;;;22.33;62.79
33153;BME280;19509;43.862;26.176;2022-09-17T07:55:10;99476.22;;;22.39;63.00
33153;BME280;19509;43.862;26.176;2022-09-17T07:57:36;99481.16;;;22.59;63.01
33153;BME280;19509;43.862;26.176;2022-09-17T08:00:02;99470.53;;;22.66;61.03
33153;BME280;19509;43.862;26.176;2022-09-17T08:02:28;99473.16;;;22.89;59.91
33153;BME280;19509;43.862;26.176;2022-09-17T08:04:53;99478.22;;;23.13;61.15
33153;BME280;19509;43.862;26.176;2022-09-17T08:07:19;99475.84;;;23.20;60.01
33153;BME280;19509;43.862;26.176;2022-09-17T08:09:44;99474.53;;;23.44;59.43
33153;BME280;19509;43.862;26.176;2022-09-17T08:12:10;99470.97;;;23.00;59.20
33153;BME280;19509;43.862;26.176;2022-09-17T08:14:35;99489.69;;;23.15;59.08
33153;BME280;19509;43.862;26.176;2022-09-17T08:17:01;99492.00;;;23.30;59.27
33153;BME280;19509;43.862;26.176;2022-09-17T08:19:29;99485.56;;;23.78;58.98
33153;BME280;19509;43.862;26.176;2022-09-17T08:21:55;99473.78;;;24.25;56.73
33153;BME280;19509;43.862;26.176;2022-09-17T08:24:21;99473.28;;;24.31;57.18
33153;BME280;19509;43.862;26.176;2022-09-17T08:26:46;99477.13;;;24.48;57.35
33153;BME280;19509;43.862;26.176;2022-09-17T08:29:12;99481.84;;;24.77;57.25
33153;BME280;19509;43.862;26.176;2022-09-17T08:31:38;99470.09;;;24.97;56.99
33153;BME280;19509;43.862;26.176;2022-09-17T08:34:07;99478.56;;;25.13;56.70
33153;BME280;19509;43.862;26.176;2022-09-17T08:36:33;99480.94;;;25.23;55.88
33153;BME280;19509;43.862;26.176;2022-09-17T08:38:59;99475.25;;;25.29;55.75
33153;BME280;19509;43.862;26.176;2022-09-17T08:44:21;99481.00;;;25.57;55.32
33153;BME280;19509;43.862;26.176;2022-09-17T08:46:58;99486.31;;;25.83;54.81
33153;BME280;19509;43.862;26.176;2022-09-17T08:49:35;99478.28;;;25.90;55.24
33153;BME280;19509;43.862;26.176;2022-09-17T08:54:51;99478.59;;;26.22;53.98
33153;BME280;19509;43.862;26.176;2022-09-17T09:00:08;99482.69;;;26.61;53.95
33153;BME280;19509;43.862;26.176;2022-09-17T09:03:03;99480.28;;;26.59;54.27
33153;BME280;19509;43.862;26.176;2022-09-17T09:05:45;99476.78;;;26.26;55.45
33153;BME280;19509;43.862;26.176;2022-09-17T09:08:27;99472.34;;;26.00;57.50
33153;BME280;19509;43.862;26.176;2022-09-17T09:10:56;99474.13;;;26.17;56.62
33153;BME280;19509;43.862;26.176;2022-09-17T09:13:28;99476.91;;;26.41;54.41
33153;BME280;19509;43.862;26.176;2022-09-17T09:15:57;99490.28;;;26.64;52.03
33153;BME280;19509;43.862;26.176;2022-09-17T09:18:33;99492.38;;;26.67;48.46
33153;BME280;19509;43.862;26.176;2022-09-17T09:23:56;99495.97;;;26.34;48.90
33153;BME280;19509;43.862;26.176;2022-09-17T09:26:42;99482.53;;;26.33;47.73
33153;BME280;19509;43.862;26.176;2022-09-17T09:29:15;99494.00;;;26.35;48.08
33153;BME280;19509;43.862;26.176;2022-09-17T09:34:23;99489.22;;;26.44;47.27
33153;BME280;19509;43.862;26.176;2022-09-17T09:36:50;99490.97;;;26.49;47.64
33153;BME280;19509;43.862;26.176;2022-09-17T09:39:28;99493.16;;;26.55;46.90
33153;BME280;19509;43.862;26.176;2022-09-17T09:42:18;99496.06;;;26.83;46.71
33153;BME280;19509;43.862;26.176;2022-09-17T09:44:46;99492.00;;;27.05;45.57
33153;BME280;19509;43.862;26.176;2022-09-17T09:48:00;99500.75;;;26.83;46.33
33153;BME280;19509;43.862;26.176;2022-09-17T09:50:41;99501.22;;;26.85;46.03
33153;BME280;19509;43.862;26.176;2022-09-17T09:53:36;99486.72;;;26.76;46.25
33153;BME280;19509;43.862;26.176;2022-09-17T09:58:55;99487.22;;;26.32;46.03
33153;BME280;19509;43.862;26.176;2022-09-17T10:01:20;99496.22;;;26.41;45.95
33153;BME280;19509;43.862;26.176;2022-09-17T10:03:47;99493.78;;;26.28;45.37
33153;BME280;19509;43.862;26.176;2022-09-17T10:06:15;99491.38;;;26.26;45.94
33153;BME280;19509;43.862;26.176;2022-09-17T10:11:28;99490.56;;;26.26;45.69
33153;BME280;19509;43.862;26.176;2022-09-17T10:16:38;99496.66;;;26.31;47.04
33153;BME280;19509;43.862;26.176;2022-09-17T10:21:37;99490.28;;;26.52;46.28
33153;BME280;19509;43.862;26.176;2022-09-17T10:24:19;99493.56;;;26.45;46.90
33153;BME280;19509;43.862;26.176;2022-09-17T10:26:46;99494.25;;;26.42;47.30
33153;BME280;19509;43.862;26.176;2022-09-17T10:29:15;99482.75;;;26.28;47.40
33153;BME280;19509;43.862;26.176;2022-09-17T10:31:47;99484.13;;;26.34;48.27
33153;BME280;19509;43.862;26.176;2022-09-17T10:34:32;99476.78;;;26.38;47.36
33153;BME280;19509;43.862;26.176;2022-09-17T10:36:58;99486.78;;;26.42;47.98
33153;BME280;19509;43.862;26.176;2022-09-17T10:39:33;99490.97;;;26.61;48.04
33153;BME280;19509;43.862;26.176;2022-09-17T10:44:30;99512.25;;;26.73;47.14
33153;BME280;19509;43.862;26.176;2022-09-17T10:47:11;99499.13;;;27.19;46.56
33153;BME280;19509;43.862;26.176;2022-09-17T10:49:43;99506.94;;;27.17;45.22
33153;BME280;19509;43.862;26.176;2022-09-17T10:52:31;99504.88;;;27.01;45.82
33153;BME280;19509;43.862;26.176;2022-09-17T10:55:50;99514.44;;;27.04;46.10
33153;BME280;19509;43.862;26.176;2022-09-17T11:04:09;99501.19;;;26.73;44.25
33153;BME280;19509;43.862;26.176;2022-09-17T11:20:31;99507.25;;;26.41;46.36
33153;BME280;19509;43.862;26.176;2022-09-17T11:26:17;99515.31;;;26.47;46.57
33153;BME280;19509;43.862;26.176;2022-09-17T11:31:49;99511.44;;;26.48;47.09
33153;BME280;19509;43.862;26.176;2022-09-17T11:34:29;99513.69;;;26.33;46.28
33153;BME280;19509;43.862;26.176;2022-09-17T11:37:36;99531.41;;;26.11;46.93
33153;BME280;19509;43.862;26.176;2022-09-17T11:45:12;99557.19;;;25.73;49.09
33153;BME280;19509;43.862;26.176;2022-09-17T11:47:57;99568.09;;;25.70;48.71
33153;BME280;19509;43.862;26.176;2022-09-17T11:50:39;99572.31;;;25.67;48.06
33153;BME280;19509;43.862;26.176;2022-09-17T11:53:24;99580.13;;;25.65;47.48
33153;BME280;19509;43.862;26.176;2022-09-17T11:58:53;99590.13;;;25.49;47.39
33153;BME280;19509;43.862;26.176;2022-09-17T12:01:42;99595.38;;;25.63;47.78
33153;BME280;19509;43.862;26.176;2022-09-17T12:09:52;99592.06;;;25.69;47.69
33153;BME280;19509;43.862;26.176;2022-09-17T12:12:23;99600.13;;;25.54;47.83
33153;BME280;19509;43.862;26.176;2022-09-17T12:14:56;99600.22;;;25.36;48.24
33153;BME280;19509;43.862;26.176;2022-09-17T12:17:29;99592.03;;;25.28;48.04
33153;BME280;19509;43.862;26.176;2022-09-17T12:20:04;99590.78;;;25.16;48.83
33153;BME280;19509;43.862;26.176;2022-09-17T12:22:34;99590.59;;;25.21;48.99
33153;BME280;19509;43.862;26.176;2022-09-17T12:25:02;99595.47;;;25.24;49.70
33153;BME280;19509;43.862;26.176;2022-09-17T12:30:16;99587.66;;;25.27;49.84
33153;BME280;19509;43.862;26.176;2022-09-17T12:35:53;99566.13;;;24.90;49.54
33153;BME280;19509;43.862;26.176;2022-09-17T12:46:44;99555.19;;;24.73;50.59
33153;BME280;19509;43.862;26.176;2022-09-17T12:51:55;99569.81;;;24.56;52.39
33153;BME280;19509;43.862;26.176;2022-09-17T12:57:31;99562.88;;;24.50;52.21
33153;BME280;19509;43.862;26.176;2022-09-17T13:00:08;99559.63;;;24.48;52.54
33153;BME280;19509;43.862;26.176;2022-09-17T13:11:00;99541.34;;;24.35;55.39
33153;BME280;19509;43.862;26.176;2022-09-17T13:13:55;99519.69;;;24.42;55.80
33153;BME280;19509;43.862;26.176;2022-09-17T13:16:43;99517.28;;;24.31;55.89
33153;BME280;19509;43.862;26.176;2022-09-17T13:24:21;99487.09;;;24.70;54.65
33153;BME280;19509;43.862;26.176;2022-09-17T13:26:50;99485.06;;;24.79;54.50
33153;BME280;19509;43.862;26.176;2022-09-17T13:37:54;99445.31;;;24.97;54.90
33153;BME280;19509;43.862;26.176;2022-09-17T13:40:29;99446.81;;;25.16;53.88
33153;BME280;19509;43.862;26.176;2022-09-17T13:43:07;99434.97;;;25.24;53.63
33153;BME280;19509;43.862;26.176;2022-09-17T13:48:25;99411.91;;;25.29;53.17
33153;BME280;19509;43.862;26.176;2022-09-17T13:50:52;99411.38;;;25.14;53.19
33153;BME280;19509;43.862;26.176;2022-09-17T13:53:20;99411.53;;;25.09;53.74
33153;BME280;19509;43.862;26.176;2022-09-17T13:55:53;99407.31;;;24.91;53.41
33153;BME280;19509;43.862;26.176;2022-09-17T13:58:32;99402.88;;;24.98;53.60
33153;BME280;19509;43.862;26.176;2022-09-17T14:01:00;99392.13;;;25.14;52.64
33153;BME280;19509;43.862;26.176;2022-09-17T14:08:27;99389.69;;;25.13;53.46
33153;BME280;19509;43.862;26.176;2022-09-17T14:10:59;99382.06;;;24.89;54.20
33153;BME280;19509;43.862;26.176;2022-09-17T14:13:27;99367.81;;;24.66;54.44
33153;BME280;19509;43.862;26.176;2022-09-17T14:16:24;99363.44;;;24.44;55.06
33153;BME280;19509;43.862;26.176;2022-09-17T14:18:57;99343.53;;;24.38;54.65
33153;BME280;19509;43.862;26.176;2022-09-17T14:21:26;99327.78;;;24.26;54.59
33153;BME280;19509;43.862;26.176;2022-09-17T14:23:56;99330.44;;;24.35;54.96
33153;BME280;19509;43.862;26.176;2022-09-17T14:26:59;99317.09;;;24.25;54.66
33153;BME280;19509;43.862;26.176;2022-09-17T14:32:27;99313.00;;;24.61;54.92
33153;BME280;19509;43.862;26.176;2022-09-17T14:35:00;99298.25;;;24.65;54.20
33153;BME280;19509;43.862;26.176;2022-09-17T14:37:27;99295.03;;;24.63;54.40
33153;BME280;19509;43.862;26.176;2022-09-17T14:39:52;99283.69;;;24.44;54.78
33153;BME280;19509;43.862;26.176;2022-09-17T14:42:22;99286.59;;;24.47;55.06
33153;BME280;19509;43.862;26.176;2022-09-17T14:44:58;99286.19;;;24.28;55.30
33153;BME280;19509;43.862;26.176;2022-09-17T14:47:25;99293.56;;;24.15;55.44
33153;BME280;19509;43.862;26.176;2022-09-17T14:49:51;99309.03;;;23.90;55.98
33153;BME280;19509;43.862;26.176;2022-09-17T14:52:28;99323.25;;;23.92;56.18
33153;BME280;19509;43.862;26.176;2022-09-17T14:55:20;99328.56;;;23.97;56.38
33153;BME280;19509;43.862;26.176;2022-09-17T14:58:00;99334.69;;;23.94;56.03
33153;BME280;19509;43.862;26.176;2022-09-17T15:00:35;99344.47;;;23.83;56.50
33153;BME280;19509;43.862;26.176;2022-09-17T15:03:03;99350.44;;;23.76;56.57
33153;BME280;19509;43.862;26.176;2022-09-17T15:05:37;99350.50;;;23.68;56.60
33153;BME280;19509;43.862;26.176;2022-09-17T15:11:00;99362.59;;;23.58;56.22
33153;BME280;19509;43.862;26.176;2022-09-17T15:13:29;99369.56;;;23.55;56.06
33153;BME280;19509;43.862;26.176;2022-09-17T15:15:58;99364.06;;;23.47;56.16
33153;BME280;19509;43.862;26.176;2022-09-17T15:18:54;99374.44;;;23.41;56.46
33153;BME280;19509;43.862;26.176;2022-09-17T15:21:31;99381.53;;;23.25;56.62
33153;BME280;19509;43.862;26.176;2022-09-17T15:24:17;99377.97;;;23.33;56.17
33153;BME280;19509;43.862;26.176;2022-09-17T15:26:50;99386.22;;;23.33;56.44
33153;BME280;19509;43.862;26.176;2022-09-17T15:29:20;99382.00;;;23.35;56.38
33153;BME280;19509;43.862;26.176;2022-09-17T15:31:47;99389.94;;;23.37;56.05
33153;BME280;19509;43.862;26.176;2022-09-17T15:34:13;99386.22;;;23.33;56.28
33153;BME280;19509;43.862;26.176;2022-09-17T15:36:38;99392.19;;;23.26;56.76
33153;BME280;19509;43.862;26.176;2022-09-17T15:39:39;99398.66;;;23.22;57.32
33153;BME280;19509;43.862;26.176;2022-09-17T15:42:12;99397.19;;;23.16;57.44
33153;BME280;19509;43.862;26.176;2022-09-17T15:44:41;99387.53;;;23.01;57.56